Skip Navigation

Christman Field Latest Observations

Switch to metric unitsOther observation timesWeekly graphs

Date Time
MST
Temp
°F
RH
%
DewPt
°F
Wind
mph
Dir
°
Gust
mph
Dir
°
Press
in Hg
Solar
W/m^2
Prec
in
2022-09-24 21:25 60.4 35.9 33.2 7.7 320 9.5 339 25.146 0.2 0.00
2022-09-24 21:20 60.4 33.8 31.8 8.2 326 12.6 325 25.145 0.2 0.00
2022-09-24 21:15 60.4 34.4 32.2 6.8 318 9.2 346 25.142 0.2 0.00
2022-09-24 21:10 60.7 33.7 32.0 6.9 339 9.8 352 25.138 0.2 0.00
2022-09-24 21:05 60.9 34.1 32.5 6.3 347 9.3 341 25.133 0.2 0.00
2022-09-24 21:00 60.8 32.7 31.3 6.3 14 8.6 357 25.129 0.2 0.00
2022-09-24 20:55 61.0 34.4 32.8 8.0 355 10.7 326 25.122 0.2 0.00
2022-09-24 20:50 60.7 33.0 31.4 8.8 348 12.5 2 25.117 0.2 0.00
2022-09-24 20:45 60.0 35.4 32.6 6.3 16 11.5 1 25.110 0.2 0.00
2022-09-24 20:40 58.3 34.7 30.5 8.1 10 10.2 13 25.104 0.2 0.00
2022-09-24 20:35 54.3 40.7 30.9 8.7 50 12.1 48 25.099 0.2 0.00
2022-09-24 20:30 55.0 50.1 36.8 2.2 58 9.2 59 25.088 0.2 0.00
2022-09-24 20:25 55.4 48.8 36.5 3.1 221 4.1 237 25.085 0.2 0.00
2022-09-24 20:20 55.6 46.4 35.4 3.0 226 3.7 232 25.082 0.2 0.00
2022-09-24 20:15 55.4 46.6 35.3 3.2 239 4.6 259 25.079 0.2 0.00
2022-09-24 20:10 57.2 46.3 36.8 3.0 289 3.7 343 25.078 0.2 0.00
2022-09-24 20:05 57.5 42.1 34.7 5.2 347 8.0 27 25.076 0.2 0.00
2022-09-24 20:00 58.6 44.3 37.0 8.7 24 11.6 33 25.074 0.2 0.00
2022-09-24 19:55 60.7 41.4 37.1 5.0 26 6.1 279 25.069 0.2 0.00
2022-09-24 19:50 60.5 36.9 34.1 6.5 269 7.7 251 25.067 0.2 0.00
2022-09-24 19:45 61.4 36.4 34.5 6.0 251 7.9 249 25.065 0.2 0.00
2022-09-24 19:40 60.6 37.4 34.4 6.6 251 8.0 252 25.063 0.2 0.00
2022-09-24 19:35 58.7 42.9 36.2 8.3 247 9.4 250 25.062 0.2 0.00
2022-09-24 19:30 57.6 46.3 37.1 6.3 254 8.6 254 25.060 0.2 0.00
2022-09-24 19:25 58.5 44.5 37.0 5.6 257 6.1 257 25.057 0.2 0.00
2022-09-24 19:20 57.5 37.8 31.9 5.0 250 5.6 265 25.056 0.2 0.00
2022-09-24 19:15 57.1 44.9 35.9 6.2 264 7.8 274 25.054 0.2 0.00
2022-09-24 19:10 59.3 48.0 39.6 3.9 269 5.7 269 25.052 0.2 0.00
2022-09-24 19:05 58.5 34.6 30.7 4.0 343 5.1 304 25.051 0.2 0.00
2022-09-24 19:00 58.9 45.1 37.6 4.2 293 5.7 285 25.048 0.2 0.00